UAL439 KLAX-KBWI
Flight info
| Callsign | UAL439 |
|---|---|
| Flight time | N/A |
| Altitude | 35000 |
| Route | DOTSS2 CLEEE PKE J96 CIM Q176 KENTO/N0460F370 Q176 JUDDI J134 FLM J24 HVQ CACYE RAVNN8 |
| Aircraft | B738/M-SDE2E3FGHIRWXY/LB1 |
Departure
| Time | 2026-04-21 18:53 |
|---|---|
| Airport | Los Angeles International Airport (KLAX) |
Arrival
| Time | N/A |
|---|---|
| Airport | Baltimore/Washington International Thurgood Marshall Airport (KBWI) |
| Time | Latitude | Longitude | Altitude | Speed | Heading |
|---|---|---|---|---|---|
| 2026-04-21 18:25 | 33.94187 | -118.39910 | 94 ft | 0 kts | 298° |
| 2026-04-21 18:44 | 33.94185 | -118.39907 | 94 ft | 3 kts | 298° |
| 2026-04-21 18:44 | 33.94173 | -118.39879 | 97 ft | 4 kts | 298° |
| 2026-04-21 18:45 | 33.94163 | -118.39854 | 94 ft | 4 kts | 258° |
| 2026-04-21 18:45 | 33.94175 | -118.39838 | 93 ft | 4 kts | 181° |
| 2026-04-21 18:45 | 33.94172 | -118.39837 | 93 ft | 4 kts | 173° |
| 2026-04-21 18:45 | 33.94147 | -118.39834 | 96 ft | 2 kts | 173° |
| 2026-04-21 18:46 | 33.94145 | -118.39833 | 96 ft | 0 kts | 173° |
| 2026-04-21 18:47 | 33.94135 | -118.39832 | 94 ft | 6 kts | 173° |
| 2026-04-21 18:48 | 33.94094 | -118.39826 | 96 ft | 5 kts | 174° |
| 2026-04-21 18:48 | 33.94068 | -118.39827 | 95 ft | 3 kts | 184° |
| 2026-04-21 18:48 | 33.94031 | -118.39827 | 97 ft | 12 kts | 172° |
| 2026-04-21 18:48 | 33.93990 | -118.39706 | 95 ft | 23 kts | 82° |
| 2026-04-21 18:49 | 33.94010 | -118.39517 | 98 ft | 22 kts | 83° |
| 2026-04-21 18:49 | 33.94029 | -118.39333 | 96 ft | 22 kts | 83° |
| 2026-04-21 18:49 | 33.94023 | -118.39239 | 98 ft | 16 kts | 133° |
| 2026-04-21 18:49 | 33.93973 | -118.39090 | 100 ft | 16 kts | 84° |
| 2026-04-21 18:50 | 33.93985 | -118.38964 | 100 ft | 15 kts | 84° |
| 2026-04-21 18:50 | 33.93998 | -118.38830 | 100 ft | 18 kts | 83° |
| 2026-04-21 18:50 | 33.94015 | -118.38663 | 102 ft | 22 kts | 82° |
| 2026-04-21 18:50 | 33.94034 | -118.38476 | 102 ft | 22 kts | 83° |
| 2026-04-21 18:51 | 33.94052 | -118.38292 | 102 ft | 22 kts | 83° |
| 2026-04-21 18:51 | 33.94067 | -118.38153 | 102 ft | 12 kts | 82° |
| 2026-04-21 18:51 | 33.94073 | -118.38097 | 102 ft | 3 kts | 83° |
| 2026-04-21 18:51 | 33.94073 | -118.38094 | 102 ft | 0 kts | 83° |
| 2026-04-21 18:52 | 33.94073 | -118.38092 | 102 ft | 3 kts | 83° |
| 2026-04-21 18:52 | 33.94074 | -118.38029 | 102 ft | 11 kts | 110° |
| 2026-04-21 18:52 | 33.94007 | -118.37999 | 108 ft | 11 kts | 198° |
| 2026-04-21 18:52 | 33.93976 | -118.38119 | 109 ft | 28 kts | 263° |
| 2026-04-21 18:53 | 33.93922 | -118.38640 | 108 ft | 96 kts | 263° |
| 2026-04-21 18:53 | 33.93815 | -118.39687 | 109 ft | 153 kts | 263° |
| 2026-04-21 18:53 | 33.93652 | -118.41122 | 328 ft | 184 kts | 260° |
| 2026-04-21 18:53 | 33.93483 | -118.42657 | 1194 ft | 183 kts | 259° |
| 2026-04-21 18:54 | 33.93319 | -118.44257 | 1718 ft | 207 kts | 259° |
| 2026-04-21 18:54 | 33.93032 | -118.46032 | 1893 ft | 224 kts | 238° |
| 2026-04-21 18:54 | 33.92099 | -118.47538 | 2429 ft | 226 kts | 229° |
| 2026-04-21 18:54 | 33.91095 | -118.49043 | 3004 ft | 237 kts | 229° |
| 2026-04-21 18:55 | 33.90383 | -118.50070 | 3407 ft | 244 kts | 228° |
| 2026-04-21 18:55 | 33.88927 | -118.52137 | 4654 ft | 238 kts | 229° |
| 2026-04-21 18:55 | 33.87861 | -118.53652 | 5558 ft | 237 kts | 230° |
| 2026-04-21 18:55 | 33.86703 | -118.55094 | 6295 ft | 243 kts | 216° |
| 2026-04-21 18:56 | 33.85129 | -118.55859 | 7070 ft | 248 kts | 193° |
| 2026-04-21 18:56 | 33.83378 | -118.55846 | 7811 ft | 258 kts | 176° |
| 2026-04-21 18:56 | 33.81600 | -118.55401 | 8516 ft | 263 kts | 172° |
| 2026-04-21 18:56 | 33.79846 | -118.54882 | 9295 ft | 263 kts | 171° |
| 2026-04-21 18:57 | 33.78059 | -118.54363 | 10056 ft | 266 kts | 172° |
| 2026-04-21 18:57 | 33.76217 | -118.53850 | 10435 ft | 283 kts | 172° |
| 2026-04-21 18:57 | 33.74244 | -118.53315 | 10834 ft | 296 kts | 172° |
| 2026-04-21 18:57 | 33.72220 | -118.52744 | 11489 ft | 302 kts | 168° |
| 2026-04-21 18:58 | 33.70337 | -118.51500 | 12179 ft | 320 kts | 146° |
| 2026-04-21 18:58 | 33.68899 | -118.49375 | 12879 ft | 341 kts | 124° |
| 2026-04-21 18:58 | 33.67993 | -118.46676 | 13502 ft | 354 kts | 116° |
| 2026-04-21 18:58 | 33.67202 | -118.43837 | 14064 ft | 363 kts | 116° |
| 2026-04-21 18:59 | 33.66402 | -118.40955 | 14695 ft | 364 kts | 116° |
| 2026-04-21 18:59 | 33.65570 | -118.38070 | 15332 ft | 366 kts | 117° |
| 2026-04-21 18:59 | 33.64727 | -118.35175 | 15974 ft | 370 kts | 115° |
| 2026-04-21 18:59 | 33.64328 | -118.32058 | 16560 ft | 387 kts | 97° |
| 2026-04-21 19:00 | 33.64330 | -118.28819 | 17173 ft | 390 kts | 95° |
| 2026-04-21 19:00 | 33.64368 | -118.25584 | 17738 ft | 395 kts | 95° |
| 2026-04-21 19:00 | 33.64407 | -118.22279 | 18329 ft | 398 kts | 95° |
| 2026-04-21 19:00 | 33.64436 | -118.18947 | 18841 ft | 401 kts | 96° |
| 2026-04-21 19:01 | 33.64453 | -118.15592 | 19353 ft | 404 kts | 96° |
| 2026-04-21 19:01 | 33.64459 | -118.12210 | 19856 ft | 407 kts | 96° |
| 2026-04-21 19:01 | 33.64461 | -118.08759 | 20329 ft | 410 kts | 96° |
| 2026-04-21 19:01 | 33.64459 | -118.05363 | 20795 ft | 413 kts | 96° |
| 2026-04-21 19:02 | 33.64454 | -118.01904 | 21284 ft | 416 kts | 96° |
| 2026-04-21 19:02 | 33.64449 | -117.98418 | 21757 ft | 420 kts | 96° |
| 2026-04-21 19:02 | 33.64443 | -117.94897 | 22249 ft | 423 kts | 96° |
| 2026-04-21 19:02 | 33.64437 | -117.91346 | 22772 ft | 427 kts | 96° |
| 2026-04-21 19:03 | 33.64430 | -117.87771 | 23231 ft | 431 kts | 96° |
| 2026-04-21 19:03 | 33.64422 | -117.84161 | 23654 ft | 434 kts | 96° |
| 2026-04-21 19:03 | 33.64415 | -117.80533 | 24046 ft | 436 kts | 95° |
| 2026-04-21 19:03 | 33.64725 | -117.76874 | 24413 ft | 446 kts | 83° |
| 2026-04-21 19:04 | 33.65398 | -117.73226 | 24792 ft | 450 kts | 80° |
| 2026-04-21 19:04 | 33.66163 | -117.69571 | 25139 ft | 453 kts | 79° |
| 2026-04-21 19:04 | 33.66944 | -117.65895 | 25480 ft | 457 kts | 80° |
| 2026-04-21 19:04 | 33.67716 | -117.62174 | 25849 ft | 459 kts | 80° |
| 2026-04-21 19:05 | 33.68465 | -117.58438 | 26201 ft | 461 kts | 81° |
| 2026-04-21 19:05 | 33.69199 | -117.54673 | 26569 ft | 464 kts | 81° |
| 2026-04-21 19:05 | 33.69924 | -117.50886 | 26934 ft | 467 kts | 81° |
| 2026-04-21 19:05 | 33.70647 | -117.47081 | 27276 ft | 469 kts | 81° |
| 2026-04-21 19:06 | 33.71373 | -117.43248 | 27561 ft | 471 kts | 81° |
| 2026-04-21 19:06 | 33.72103 | -117.39397 | 27856 ft | 474 kts | 81° |
| 2026-04-21 19:06 | 33.72838 | -117.35522 | 28152 ft | 477 kts | 81° |
| 2026-04-21 19:06 | 33.73576 | -117.31629 | 28469 ft | 479 kts | 81° |
| 2026-04-21 19:07 | 33.74317 | -117.27712 | 28770 ft | 482 kts | 81° |
| 2026-04-21 19:07 | 33.75039 | -117.23777 | 29071 ft | 483 kts | 85° |
| 2026-04-21 19:07 | 33.75239 | -117.19788 | 29318 ft | 476 kts | 97° |
| 2026-04-21 19:07 | 33.75116 | -117.15816 | 29694 ft | 477 kts | 98° |
| 2026-04-21 19:08 | 33.74966 | -117.11869 | 29975 ft | 479 kts | 98° |
| 2026-04-21 19:08 | 33.74833 | -117.07853 | 30244 ft | 483 kts | 98° |
| 2026-04-21 19:08 | 33.74732 | -117.03811 | 30461 ft | 485 kts | 97° |
| 2026-04-21 19:08 | 33.74648 | -116.99747 | 30678 ft | 488 kts | 97° |
| 2026-04-21 19:09 | 33.74565 | -116.95654 | 30898 ft | 491 kts | 97° |
| 2026-04-21 19:09 | 33.74476 | -116.91542 | 31097 ft | 493 kts | 97° |
| 2026-04-21 19:09 | 33.74383 | -116.87416 | 31302 ft | 495 kts | 97° |
| 2026-04-21 19:09 | 33.74287 | -116.83265 | 31501 ft | 497 kts | 96° |
| 2026-04-21 19:10 | 33.74190 | -116.79108 | 31694 ft | 500 kts | 96° |
| 2026-04-21 19:10 | 33.74090 | -116.74921 | 31840 ft | 502 kts | 96° |
| 2026-04-21 19:10 | 33.73988 | -116.70714 | 32036 ft | 505 kts | 96° |
| 2026-04-21 19:10 | 33.73920 | -116.67925 | 32185 ft | 506 kts | 96° |
| 2026-04-21 19:11 | 33.73817 | -116.63697 | 32418 ft | 506 kts | 97° |
| 2026-04-21 19:11 | 33.73712 | -116.59460 | 32582 ft | 507 kts | 96° |
| 2026-04-21 19:11 | 33.73571 | -116.53833 | 32800 ft | 510 kts | 96° |
| 2026-04-21 19:11 | 33.73462 | -116.49567 | 32988 ft | 512 kts | 96° |
| 2026-04-21 19:12 | 33.73386 | -116.46678 | 33112 ft | 513 kts | 96° |
| 2026-04-21 19:12 | 33.73274 | -116.42390 | 33295 ft | 515 kts | 96° |
| 2026-04-21 19:12 | 33.73159 | -116.38086 | 33471 ft | 516 kts | 96° |
| 2026-04-21 19:12 | 33.73043 | -116.33773 | 33641 ft | 517 kts | 96° |
| 2026-04-21 19:13 | 33.72928 | -116.29499 | 33799 ft | 519 kts | 95° |
| 2026-04-21 19:13 | 33.72808 | -116.25155 | 33955 ft | 520 kts | 95° |
| 2026-04-21 19:13 | 33.72688 | -116.20802 | 34103 ft | 521 kts | 95° |
| 2026-04-21 19:13 | 33.72565 | -116.16447 | 34257 ft | 522 kts | 95° |
| 2026-04-21 19:14 | 33.72439 | -116.12096 | 34469 ft | 521 kts | 95° |
| 2026-04-21 19:14 | 33.72406 | -116.07750 | 34732 ft | 521 kts | 87° |
| 2026-04-21 19:14 | 33.73126 | -116.03489 | 34973 ft | 521 kts | 72° |
| 2026-04-21 19:15 | 33.75501 | -115.95217 | 34975 ft | 525 kts | 70° |
| 2026-04-21 19:15 | 33.77923 | -115.86978 | 34963 ft | 521 kts | 71° |
| 2026-04-21 19:16 | 33.80251 | -115.78751 | 34955 ft | 518 kts | 71° |
| 2026-04-21 19:16 | 33.82492 | -115.70617 | 34950 ft | 514 kts | 72° |
| 2026-04-21 19:17 | 33.85855 | -115.58344 | 34962 ft | 518 kts | 72° |
| 2026-04-21 19:17 | 33.88126 | -115.50059 | 34951 ft | 522 kts | 71° |
| 2026-04-21 19:18 | 33.90400 | -115.41753 | 34943 ft | 523 kts | 71° |
| 2026-04-21 19:18 | 33.92669 | -115.33427 | 34949 ft | 523 kts | 72° |
| 2026-04-21 19:19 | 33.94928 | -115.25098 | 34922 ft | 522 kts | 72° |
| 2026-04-21 19:19 | 33.97177 | -115.16792 | 34937 ft | 520 kts | 72° |
| 2026-04-21 19:20 | 33.99308 | -115.08903 | 34934 ft | 518 kts | 72° |
| 2026-04-21 19:20 | 34.01527 | -115.00662 | 34932 ft | 515 kts | 72° |
| 2026-04-21 19:21 | 34.03728 | -114.92461 | 34933 ft | 513 kts | 72° |
| 2026-04-21 19:21 | 34.05914 | -114.84290 | 34927 ft | 511 kts | 72° |
| 2026-04-21 19:22 | 34.08085 | -114.76154 | 34935 ft | 509 kts | 72° |
| 2026-04-21 19:22 | 34.10246 | -114.68035 | 34933 ft | 508 kts | 72° |
| 2026-04-21 19:23 | 34.12491 | -114.59970 | 34932 ft | 507 kts | 70° |
| 2026-04-21 19:23 | 34.14806 | -114.51902 | 35001 ft | 511 kts | 70° |
| 2026-04-21 19:24 | 34.15964 | -114.47844 | 35194 ft | 510 kts | 70° |
| 2026-04-21 19:24 | 34.17095 | -114.43853 | 35519 ft | 506 kts | 71° |
| 2026-04-21 19:24 | 34.18226 | -114.39840 | 35812 ft | 503 kts | 71° |
| 2026-04-21 19:24 | 34.19349 | -114.35843 | 36012 ft | 502 kts | 71° |
| 2026-04-21 19:25 | 34.20470 | -114.31848 | 36211 ft | 501 kts | 71° |
| 2026-04-21 19:25 | 34.21587 | -114.27867 | 36358 ft | 500 kts | 71° |
| 2026-04-21 19:25 | 34.22703 | -114.23883 | 36525 ft | 500 kts | 71° |
| 2026-04-21 19:25 | 34.23812 | -114.19914 | 36741 ft | 498 kts | 71° |
| 2026-04-21 19:26 | 34.24919 | -114.15954 | 36940 ft | 496 kts | 71° |
| 2026-04-21 19:26 | 34.26024 | -114.11997 | 36920 ft | 497 kts | 71° |
| 2026-04-21 19:26 | 34.28214 | -114.04117 | 36930 ft | 497 kts | 71° |